createdAt,value
2022-08-20T00:01:01.760Z,24.85
2022-08-20T00:03:36.013Z,25.88
2022-08-20T00:06:23.024Z,25.45
2022-08-20T00:08:50.312Z,25.40
2022-08-20T00:11:21.406Z,25.52
2022-08-20T00:13:54.215Z,26.65
2022-08-20T00:16:23.179Z,26.98
2022-08-20T00:18:50.230Z,26.25
2022-08-20T00:21:19.465Z,25.98
2022-08-20T00:23:49.522Z,25.90
2022-08-20T00:26:17.280Z,27.42
2022-08-20T00:28:44.495Z,27.80
2022-08-20T00:31:13.952Z,26.90
2022-08-20T00:33:40.951Z,26.77
2022-08-20T00:36:10.187Z,27.15
2022-08-20T00:38:41.672Z,25.85
2022-08-20T00:41:13.162Z,26.75
2022-08-20T00:44:13.941Z,26.85
2022-08-20T00:46:42.534Z,27.88
2022-08-20T00:49:25.934Z,27.42
2022-08-20T00:52:03.970Z,26.92
2022-08-20T00:54:46.771Z,27.23
2022-08-20T00:57:25.316Z,28.00
2022-08-20T00:59:53.308Z,26.75
2022-08-20T01:02:23.163Z,28.15
2022-08-20T01:04:54.690Z,28.33
2022-08-20T01:07:35.680Z,28.98
2022-08-20T01:10:07.519Z,28.52
2022-08-20T01:12:34.827Z,29.55
2022-08-20T01:15:03.845Z,28.83
2022-08-20T01:17:35.049Z,30.23
2022-08-20T01:20:06.417Z,29.42
2022-08-20T01:23:08.487Z,28.42
2022-08-20T01:25:46.844Z,28.92
2022-08-20T01:28:16.442Z,28.15
2022-08-20T01:30:43.584Z,29.80
2022-08-20T01:33:10.540Z,28.90
2022-08-20T01:35:40.198Z,29.80
2022-08-20T01:38:07.366Z,29.13
2022-08-20T01:41:00.355Z,30.58
2022-08-20T01:43:28.312Z,30.65
2022-08-20T01:45:57.809Z,31.42
2022-08-20T01:48:26.231Z,31.65
2022-08-20T01:51:20.610Z,32.22
2022-08-20T01:53:52.691Z,31.42
2022-08-20T01:56:24.924Z,32.33
2022-08-20T01:58:58.704Z,30.02
2022-08-20T02:01:46.865Z,29.50
2022-08-20T02:04:15.566Z,28.15
2022-08-20T02:06:56.809Z,27.90
2022-08-20T02:09:28.988Z,29.13
2022-08-20T02:11:57.691Z,27.60
2022-08-20T02:14:26.506Z,26.90
2022-08-20T02:16:54.569Z,27.50
2022-08-20T02:20:08.606Z,26.30
2022-08-20T02:22:53.082Z,26.05
2022-08-20T02:25:30.348Z,26.58
2022-08-20T02:28:00.646Z,25.85
2022-08-20T02:30:34.233Z,26.10
2022-08-20T02:33:03.308Z,25.67
2022-08-20T02:35:30.990Z,25.92
2022-08-20T02:37:58.230Z,26.02
2022-08-20T02:40:31.243Z,25.80
2022-08-20T02:43:01.703Z,26.35
2022-08-20T02:45:29.999Z,26.25
2022-08-20T02:47:59.297Z,26.50
2022-08-20T02:50:27.346Z,25.73
2022-08-20T02:52:54.421Z,26.13
2022-08-20T02:55:27.288Z,25.30
2022-08-20T02:58:00.155Z,25.63
2022-08-20T03:00:32.049Z,25.45
2022-08-20T03:03:05.278Z,25.48
2022-08-20T03:05:32.100Z,24.90
2022-08-20T03:07:59.292Z,26.50
2022-08-20T03:10:30.763Z,24.70
2022-08-20T03:12:59.802Z,25.85
2022-08-20T03:15:26.705Z,26.05
2022-08-20T03:17:53.591Z,25.83
2022-08-20T03:20:23.857Z,25.00
2022-08-20T03:22:51.543Z,25.98
2022-08-20T03:25:18.887Z,27.75
2022-08-20T03:27:47.148Z,26.75
2022-08-20T03:30:20.245Z,27.58
2022-08-20T03:32:47.263Z,27.77
2022-08-20T03:35:16.015Z,28.17
2022-08-20T03:37:43.658Z,28.83
2022-08-20T03:40:18.941Z,30.52
2022-08-20T03:42:45.788Z,29.95
2022-08-20T03:45:16.074Z,29.77
2022-08-20T03:47:47.664Z,31.48
2022-08-20T03:50:23.049Z,31.17
2022-08-20T03:52:55.127Z,31.30
2022-08-20T03:55:22.818Z,31.00
2022-08-20T03:57:53.168Z,31.15
2022-08-20T04:00:27.001Z,33.08
2022-08-20T04:02:55.299Z,32.75
2022-08-20T04:05:28.351Z,33.22
2022-08-20T04:07:57.948Z,30.98
2022-08-20T04:10:30.514Z,33.95
2022-08-20T04:12:57.460Z,32.35
2022-08-20T04:15:24.548Z,32.80
2022-08-20T04:17:52.681Z,33.08
2022-08-20T04:20:23.764Z,33.90
2022-08-20T04:22:58.562Z,33.38
2022-08-20T04:25:31.447Z,31.25
2022-08-20T04:28:06.778Z,32.60
2022-08-20T04:30:34.732Z,32.33
2022-08-20T04:33:02.051Z,33.88
2022-08-20T04:35:30.088Z,33.25
2022-08-20T04:38:01.983Z,35.40
2022-08-20T04:40:48.043Z,35.25
2022-08-20T04:43:15.436Z,34.20
2022-08-20T04:45:42.647Z,34.75
2022-08-20T04:48:14.705Z,35.45
2022-08-20T04:50:44.822Z,32.83
2022-08-20T04:53:13.623Z,34.47
2022-08-20T04:55:42.896Z,34.67
2022-08-20T04:58:20.841Z,37.25
2022-08-20T05:00:51.764Z,35.47
2022-08-20T05:03:19.568Z,33.65
2022-08-20T05:06:14.180Z,33.85
2022-08-20T05:08:41.016Z,34.30
2022-08-20T05:11:34.160Z,33.95
2022-08-20T05:13:56.517Z,32.97
2022-08-20T05:16:24.576Z,33.90
2022-08-20T05:18:52.480Z,34.45
2022-08-20T05:21:21.147Z,34.15
2022-08-20T05:23:49.417Z,33.20
2022-08-20T05:26:20.042Z,34.13
2022-08-20T05:28:58.743Z,34.20
2022-08-20T05:31:31.890Z,33.67
2022-08-20T05:34:10.761Z,35.22
2022-08-20T05:36:40.785Z,34.03
2022-08-20T05:39:08.955Z,35.75
2022-08-20T05:41:37.832Z,34.15
2022-08-20T05:44:05.351Z,34.20
2022-08-20T05:46:32.350Z,34.90
2022-08-20T05:49:01.626Z,32.83
2022-08-20T05:51:29.890Z,34.00
2022-08-20T05:53:59.540Z,33.22
2022-08-20T05:56:30.241Z,33.05
2022-08-20T05:58:59.483Z,31.10
2022-08-20T06:01:26.359Z,32.13
2022-08-20T06:04:28.646Z,31.27
2022-08-20T06:07:06.907Z,31.65
2022-08-20T06:09:35.103Z,31.75
2022-08-20T06:12:05.909Z,31.92
2022-08-20T06:14:33.282Z,32.20
2022-08-20T06:17:06.133Z,31.85
2022-08-20T06:19:34.110Z,32.40
2022-08-20T06:22:02.068Z,32.80
2022-08-20T06:24:28.933Z,30.27
2022-08-20T06:27:01.274Z,30.63
2022-08-20T06:29:29.066Z,30.58
2022-08-20T06:31:56.764Z,30.05
2022-08-20T06:34:28.388Z,30.42
2022-08-20T06:36:59.524Z,31.63
2022-08-20T06:39:31.032Z,31.40
2022-08-20T06:41:58.694Z,31.20
2022-08-20T06:44:25.974Z,29.92
2022-08-20T06:46:52.922Z,31.67
2022-08-20T06:49:19.709Z,32.50
2022-08-20T06:51:46.536Z,33.78
2022-08-20T06:54:18.994Z,33.08
2022-08-20T06:56:45.811Z,33.42
2022-08-20T06:59:12.816Z,32.10
2022-08-20T07:01:40.856Z,32.05
2022-08-20T07:04:08.397Z,31.63
2022-08-20T07:06:35.190Z,33.72
2022-08-20T07:09:02.093Z,33.05
2022-08-20T07:11:29.130Z,34.35
2022-08-20T07:13:58.082Z,33.42
2022-08-20T07:16:25.424Z,35.92
2022-08-20T07:18:52.210Z,34.75
2022-08-20T07:21:18.986Z,37.90
2022-08-20T07:23:45.854Z,38.00
2022-08-20T07:26:13.285Z,39.75
2022-08-20T07:28:40.769Z,38.65
2022-08-20T07:31:27.042Z,38.28
2022-08-20T07:33:55.244Z,39.00
2022-08-20T07:36:23.282Z,37.60
2022-08-20T07:38:52.641Z,35.40
2022-08-20T07:41:20.583Z,36.03
2022-08-20T07:43:48.450Z,35.75
2022-08-20T07:46:17.731Z,35.03
2022-08-20T07:48:49.958Z,36.55
2022-08-20T07:51:19.883Z,35.90
2022-08-20T07:53:48.208Z,35.28
2022-08-20T07:56:21.642Z,35.30
2022-08-20T07:58:52.224Z,36.33
2022-08-20T08:01:22.456Z,35.42
2022-08-20T08:03:50.721Z,35.58
2022-08-20T08:06:29.793Z,34.28
2022-08-20T08:09:11.614Z,32.13
2022-08-20T08:11:46.388Z,32.22
2022-08-20T08:14:16.234Z,30.25
2022-08-20T08:16:45.775Z,27.35
2022-08-20T08:19:15.784Z,27.15
2022-08-20T08:21:43.579Z,24.02
2022-08-20T08:24:12.674Z,23.25
2022-08-20T08:26:41.291Z,24.13
2022-08-20T08:29:08.095Z,21.90
2022-08-20T08:31:35.194Z,20.17
2022-08-20T08:34:02.101Z,18.67
2022-08-20T08:36:28.976Z,16.83
2022-08-20T08:38:56.593Z,17.48
2022-08-20T08:41:34.078Z,16.73
2022-08-20T08:44:12.943Z,15.27
2022-08-20T08:46:43.609Z,13.52
2022-08-20T08:49:14.410Z,14.60
2022-08-20T08:51:47.959Z,14.35
2022-08-20T08:54:18.124Z,16.27
2022-08-20T08:56:50.174Z,15.80
2022-08-20T08:59:18.907Z,16.73
2022-08-20T09:01:55.499Z,16.90
2022-08-20T09:04:39.857Z,15.65
2022-08-20T09:07:14.064Z,15.63
2022-08-20T09:09:44.697Z,16.58
2022-08-20T09:12:21.126Z,17.02
2022-08-20T09:14:49.821Z,17.88
2022-08-20T09:17:19.042Z,16.00
2022-08-20T09:19:46.008Z,15.75
2022-08-20T09:22:18.812Z,11.85
2022-08-20T09:24:46.436Z,12.25
2022-08-20T09:27:13.654Z,14.35
2022-08-20T09:29:40.869Z,13.85
2022-08-20T09:32:27.566Z,12.55
2022-08-20T09:34:56.490Z,12.18
2022-08-20T09:37:25.892Z,12.50
2022-08-20T09:39:52.917Z,12.23
2022-08-20T09:42:36.201Z,11.18
2022-08-20T09:45:06.544Z,9.27
2022-08-20T09:47:38.978Z,8.75
2022-08-20T09:50:10.862Z,7.10
2022-08-20T09:52:41.716Z,5.85
2022-08-20T09:55:22.196Z,6.75
2022-08-20T09:57:51.041Z,6.63
2022-08-20T10:00:19.239Z,5.20
2022-08-20T10:02:46.395Z,6.07
2022-08-20T10:05:13.726Z,5.20
2022-08-20T10:07:41.546Z,6.55
2022-08-20T10:10:12.381Z,6.60
2022-08-20T10:12:41.420Z,4.80
2022-08-20T10:15:09.478Z,4.70
2022-08-20T10:17:41.732Z,4.05
2022-08-20T10:20:10.985Z,4.50
2022-08-20T10:22:38.144Z,4.88
2022-08-20T10:25:06.179Z,5.10
2022-08-20T10:27:33.219Z,4.93
2022-08-20T10:30:00.066Z,5.03
2022-08-20T10:32:26.982Z,4.85
2022-08-20T10:34:53.852Z,5.43
2022-08-20T10:37:23.494Z,4.13
2022-08-20T10:39:50.401Z,3.70
2022-08-20T10:42:17.461Z,3.10
2022-08-20T10:44:44.332Z,3.80
2022-08-20T10:47:19.417Z,3.83
2022-08-20T10:49:46.627Z,3.17
2022-08-20T10:52:13.570Z,2.97
2022-08-20T10:54:42.207Z,2.85
2022-08-20T10:57:17.649Z,2.80
2022-08-20T10:59:46.282Z,3.33
2022-08-20T11:02:14.463Z,3.20
2022-08-20T11:04:41.282Z,3.03
2022-08-20T11:07:50.695Z,3.15
2022-08-20T11:10:25.266Z,3.08
2022-08-20T11:12:52.250Z,1.92
2022-08-20T11:15:19.108Z,2.63
2022-08-20T11:17:46.031Z,2.85
2022-08-20T11:20:16.373Z,2.50
2022-08-20T11:22:43.289Z,2.28
2022-08-20T11:25:10.711Z,2.83
2022-08-20T11:27:41.293Z,2.70
2022-08-20T11:30:11.712Z,3.35
2022-08-20T11:32:38.779Z,3.00
2022-08-20T11:35:24.365Z,3.20
2022-08-20T11:37:55.593Z,3.70
2022-08-20T11:40:23.935Z,3.83
2022-08-20T11:43:13.258Z,3.80
2022-08-20T11:45:38.003Z,3.47
2022-08-20T11:48:05.504Z,4.43
2022-08-20T11:50:32.503Z,4.07
2022-08-20T11:53:01.766Z,3.40
2022-08-20T11:55:30.373Z,3.55
2022-08-20T11:58:00.405Z,2.90
2022-08-20T12:00:33.063Z,2.80
2022-08-20T12:03:02.443Z,3.00
2022-08-20T12:05:30.136Z,2.80
2022-08-20T12:08:00.728Z,2.72
2022-08-20T12:10:28.395Z,2.90
2022-08-20T12:12:56.322Z,3.13
2022-08-20T12:15:23.900Z,3.15
2022-08-20T12:17:50.729Z,3.00
2022-08-20T12:20:17.870Z,2.80
2022-08-20T12:22:45.144Z,3.38
2022-08-20T12:25:13.219Z,2.78
2022-08-20T12:27:40.796Z,2.92
2022-08-20T12:30:20.579Z,2.83
2022-08-20T12:32:47.873Z,3.00
2022-08-20T12:35:16.945Z,2.80
2022-08-20T12:37:45.062Z,3.38
2022-08-20T12:40:18.077Z,3.45
2022-08-20T12:42:57.658Z,2.45
2022-08-20T12:45:24.762Z,2.85
2022-08-20T12:47:51.596Z,2.83
2022-08-20T12:50:29.629Z,2.70
2022-08-20T12:52:58.733Z,2.70
2022-08-20T12:55:26.218Z,2.20
2022-08-20T12:57:57.003Z,2.25
2022-08-20T13:00:28.159Z,2.53
2022-08-20T13:02:58.555Z,2.17
2022-08-20T13:05:25.819Z,2.20
2022-08-20T13:07:53.258Z,2.30
2022-08-20T13:10:32.708Z,2.10
2022-08-20T13:13:04.057Z,2.00
2022-08-20T13:15:32.484Z,2.70
2022-08-20T13:18:01.915Z,2.65
2022-08-20T13:20:34.628Z,2.55
2022-08-20T13:23:03.749Z,2.75
2022-08-20T13:25:30.634Z,1.80
2022-08-20T13:27:59.554Z,2.40
2022-08-20T13:30:27.094Z,2.70
2022-08-20T13:32:54.367Z,2.50
2022-08-20T13:35:21.762Z,2.35
2022-08-20T13:37:49.832Z,2.58
2022-08-20T13:40:18.086Z,2.22
2022-08-20T13:42:45.095Z,2.60
2022-08-20T13:45:12.361Z,2.92
2022-08-20T13:47:41.100Z,2.35
2022-08-20T13:50:10.211Z,2.75
2022-08-20T13:52:37.782Z,2.25
2022-08-20T13:55:07.114Z,2.00
2022-08-20T13:57:34.458Z,2.10
2022-08-20T14:00:01.304Z,2.35
2022-08-20T14:02:31.126Z,2.60
2022-08-20T14:04:58.060Z,2.13
2022-08-20T14:07:32.315Z,2.72
2022-08-20T14:10:06.339Z,1.90
2022-08-20T14:12:33.440Z,2.45
2022-08-20T14:15:00.270Z,2.15
2022-08-20T14:17:36.771Z,2.35
2022-08-20T14:20:25.464Z,2.13
2022-08-20T14:22:57.137Z,2.28
2022-08-20T14:25:25.605Z,2.20
2022-08-20T14:27:53.005Z,2.15
2022-08-20T14:30:23.098Z,2.40
2022-08-20T14:32:50.102Z,2.42
2022-08-20T14:35:17.105Z,2.53
2022-08-20T14:37:47.548Z,2.22
2022-08-20T14:40:18.018Z,1.90
2022-08-20T14:42:51.343Z,2.72
2022-08-20T14:45:22.021Z,2.13
2022-08-20T14:47:53.746Z,2.17
2022-08-20T14:50:29.948Z,2.03
2022-08-20T14:52:57.552Z,2.00
2022-08-20T14:55:27.242Z,2.05
2022-08-20T14:57:55.184Z,2.30
2022-08-20T15:00:25.988Z,2.13
2022-08-20T15:02:52.994Z,2.40
2022-08-20T15:05:19.976Z,2.33
2022-08-20T15:07:49.648Z,2.40
2022-08-20T15:10:25.985Z,2.35
2022-08-20T15:12:53.056Z,2.20
2022-08-20T15:15:20.508Z,2.00
2022-08-20T15:17:50.195Z,2.17
2022-08-20T15:20:21.158Z,2.30
2022-08-20T15:22:49.232Z,2.15
2022-08-20T15:25:18.481Z,2.08
2022-08-20T15:27:46.149Z,2.17
2022-08-20T15:30:20.022Z,1.83
2022-08-20T15:32:50.229Z,1.92
2022-08-20T15:35:19.815Z,2.28
2022-08-20T15:37:50.827Z,2.40
2022-08-20T15:40:24.503Z,1.92
2022-08-20T15:42:54.020Z,2.38
2022-08-20T15:45:21.647Z,2.53
2022-08-20T15:47:51.197Z,1.92
2022-08-20T15:50:33.148Z,2.00
2022-08-20T15:53:10.206Z,2.00
2022-08-20T15:55:40.985Z,2.13
2022-08-20T15:58:18.398Z,2.00
2022-08-20T16:01:24.009Z,2.00
2022-08-20T16:04:06.521Z,1.92
2022-08-20T16:06:33.488Z,2.03
2022-08-20T16:09:18.358Z,2.17
2022-08-20T16:12:00.761Z,2.07
2022-08-20T16:14:33.608Z,1.95
2022-08-20T16:17:03.300Z,1.77
2022-08-20T16:19:58.192Z,2.13
2022-08-20T16:22:29.328Z,2.50
2022-08-20T16:24:56.802Z,1.92
2022-08-20T16:27:54.352Z,2.13
2022-08-20T16:30:43.344Z,2.03
2022-08-20T16:33:26.500Z,2.10
2022-08-20T16:36:09.216Z,1.95
2022-08-20T16:38:45.775Z,2.08
2022-08-20T16:41:24.407Z,1.80
2022-08-20T16:43:53.249Z,1.88
2022-08-20T16:46:25.634Z,1.70
2022-08-20T16:48:58.231Z,2.22
2022-08-20T16:51:54.535Z,1.85
2022-08-20T16:54:30.101Z,2.13
2022-08-20T16:57:04.043Z,1.85
2022-08-20T16:59:32.257Z,2.17
2022-08-20T17:02:10.444Z,1.83
2022-08-20T17:04:59.033Z,1.63
2022-08-20T17:07:46.391Z,1.70
2022-08-20T17:10:21.044Z,2.05
2022-08-20T17:12:59.329Z,1.60
2022-08-20T17:15:30.794Z,1.88
2022-08-20T17:17:58.382Z,1.67
2022-08-20T17:20:29.088Z,1.70
2022-08-20T17:23:14.691Z,2.00
2022-08-20T17:25:41.812Z,1.88
2022-08-20T17:28:19.880Z,2.10
2022-08-20T17:30:47.423Z,1.63
2022-08-20T17:33:33.973Z,1.40
2022-08-20T17:36:17.880Z,1.80
2022-08-20T17:38:56.397Z,1.48
2022-08-20T17:41:27.578Z,1.77
2022-08-20T17:44:07.362Z,1.70
2022-08-20T17:46:39.482Z,1.70
2022-08-20T17:49:09.817Z,1.85
2022-08-20T17:51:46.178Z,2.08
2022-08-20T17:54:21.039Z,1.80
2022-08-20T17:56:55.988Z,2.10
2022-08-20T18:00:00.385Z,1.98
2022-08-20T18:02:20.309Z,1.73
2022-08-20T18:04:48.967Z,1.80
2022-08-20T18:07:25.398Z,1.95
2022-08-20T18:10:23.706Z,1.60
2022-08-20T18:13:17.984Z,1.67
2022-08-20T18:15:57.504Z,1.67
2022-08-20T18:18:56.384Z,1.77
2022-08-20T18:21:56.179Z,1.90
2022-08-20T18:24:38.379Z,2.13
2022-08-20T18:27:11.597Z,2.03
2022-08-20T18:29:42.889Z,2.28
2022-08-20T18:32:39.342Z,1.85
2022-08-20T18:35:13.249Z,1.92
2022-08-20T18:37:40.900Z,1.90
2022-08-20T18:40:18.454Z,1.65
2022-08-20T18:42:45.862Z,1.63
2022-08-20T18:45:13.008Z,1.98
2022-08-20T18:47:45.673Z,1.92
2022-08-20T18:50:43.574Z,1.63
2022-08-20T18:53:13.428Z,1.85
2022-08-20T18:55:59.688Z,1.83
2022-08-20T18:58:49.842Z,2.20
2022-08-20T19:01:19.200Z,1.75
2022-08-20T19:03:49.308Z,1.60
2022-08-20T19:06:35.955Z,2.05
2022-08-20T19:09:29.467Z,1.52
2022-08-20T19:12:16.488Z,2.00
2022-08-20T19:15:21.927Z,1.80
2022-08-20T19:18:16.245Z,1.95
2022-08-20T19:20:56.773Z,1.70
2022-08-20T19:23:27.148Z,1.98
2022-08-20T19:25:58.973Z,1.90
2022-08-20T19:28:40.408Z,1.63
2022-08-20T19:31:14.411Z,2.38
2022-08-20T19:33:44.635Z,2.30
2022-08-20T19:36:21.015Z,2.30
2022-08-20T19:38:55.458Z,2.05
2022-08-20T19:41:35.191Z,2.08
2022-08-20T19:44:03.544Z,1.85
2022-08-20T19:46:35.660Z,1.85
2022-08-20T19:49:42.906Z,1.83
2022-08-20T19:52:28.814Z,1.83
2022-08-20T19:55:02.788Z,2.00
2022-08-20T19:57:31.090Z,2.03
2022-08-20T20:00:01.770Z,1.50
2022-08-20T20:02:32.206Z,2.10
2022-08-20T20:04:59.049Z,2.63
2022-08-20T20:07:29.595Z,2.22
2022-08-20T20:09:58.548Z,1.70
2022-08-20T20:12:25.659Z,1.73
2022-08-20T20:14:54.158Z,2.20
2022-08-20T20:17:24.203Z,2.00
2022-08-20T20:20:00.051Z,1.77
2022-08-20T20:22:33.804Z,1.95
2022-08-20T20:25:12.586Z,1.90
2022-08-20T20:27:40.758Z,2.17
2022-08-20T20:30:13.797Z,2.05
2022-08-20T20:32:46.048Z,2.47
2022-08-20T20:35:28.101Z,2.03
2022-08-20T20:38:03.680Z,2.10
2022-08-20T20:40:42.682Z,2.28
2022-08-20T20:43:13.775Z,2.50
2022-08-20T20:45:44.343Z,1.92
2022-08-20T20:48:24.186Z,2.17
2022-08-20T20:50:52.183Z,1.67
2022-08-20T20:53:51.669Z,2.40
2022-08-20T20:56:43.083Z,2.00
2022-08-20T20:59:10.595Z,2.28
2022-08-20T21:01:46.175Z,2.65
2022-08-20T21:04:17.360Z,2.20
2022-08-20T21:06:44.203Z,2.38
2022-08-20T21:09:10.982Z,2.40
2022-08-20T21:11:37.784Z,2.92
2022-08-20T21:14:04.896Z,3.00
2022-08-20T21:16:31.877Z,3.00
2022-08-20T21:18:58.680Z,3.03
2022-08-20T21:21:25.626Z,2.80
2022-08-20T21:23:52.431Z,3.00
2022-08-20T21:26:19.402Z,2.08
2022-08-20T21:28:46.256Z,2.60
2022-08-20T21:31:13.449Z,2.15
2022-08-20T21:33:40.438Z,1.95
2022-08-20T21:36:07.505Z,2.15
2022-08-20T21:38:34.307Z,2.20
2022-08-20T21:41:01.292Z,1.98
2022-08-20T21:43:32.679Z,2.20
2022-08-20T21:46:01.399Z,2.10
2022-08-20T21:48:29.279Z,2.10
2022-08-20T21:50:56.123Z,2.35
2022-08-20T21:53:23.252Z,2.38
2022-08-20T21:55:50.338Z,2.33
2022-08-20T21:58:17.991Z,2.08
2022-08-20T22:00:45.282Z,2.30
2022-08-20T22:03:13.354Z,2.40
2022-08-20T22:05:41.961Z,2.13
2022-08-20T22:08:10.144Z,2.47
2022-08-20T22:10:37.627Z,2.17
2022-08-20T22:13:04.696Z,2.22
2022-08-20T22:15:31.621Z,2.10
2022-08-20T22:17:58.463Z,2.53
2022-08-20T22:20:26.119Z,2.50
2022-08-20T22:22:53.086Z,1.90
2022-08-20T22:25:20.069Z,2.45
2022-08-20T22:27:46.935Z,2.60
2022-08-20T22:30:13.896Z,2.20
2022-08-20T22:32:52.325Z,2.30
2022-08-20T22:35:19.992Z,2.47
2022-08-20T22:37:47.160Z,2.20
2022-08-20T22:40:13.993Z,2.05
2022-08-20T22:42:40.840Z,2.35
2022-08-20T22:45:12.300Z,2.38
2022-08-20T22:47:43.030Z,2.10
2022-08-20T22:50:11.998Z,2.13
2022-08-20T22:52:39.939Z,2.30
2022-08-20T22:55:07.323Z,2.40
2022-08-20T22:57:37.190Z,2.10
2022-08-20T23:00:08.972Z,2.22
2022-08-20T23:02:35.889Z,3.08
2022-08-20T23:05:03.154Z,3.65
2022-08-20T23:07:30.194Z,3.28
2022-08-20T23:09:57.083Z,2.90
2022-08-20T23:12:24.500Z,2.53
2022-08-20T23:14:52.599Z,2.90
2022-08-20T23:17:19.903Z,2.70
2022-08-20T23:19:49.216Z,2.20
2022-08-20T23:22:16.933Z,2.22
2022-08-20T23:24:43.768Z,2.58
2022-08-20T23:27:14.194Z,2.42
2022-08-20T23:29:41.727Z,2.70
2022-08-20T23:32:08.751Z,2.70
2022-08-20T23:34:35.674Z,2.47
2022-08-20T23:37:03.208Z,2.80
2022-08-20T23:39:31.391Z,2.83
2022-08-20T23:41:58.845Z,3.03
2022-08-20T23:44:27.135Z,3.40
2022-08-20T23:47:00.720Z,3.42
2022-08-20T23:49:29.249Z,3.63
2022-08-20T23:51:57.736Z,3.67
2022-08-20T23:54:24.646Z,3.08
2022-08-20T23:56:51.539Z,3.63
2022-08-20T23:59:24.170Z,4.20
